Time;durP1;ratioP1;P1;durP2;ratioP2;P2;SDS_P1;SDS_P2;PMS_P1;PMS_P2;Temp;Humidity;BMP_temperature;BMP_pressure;BME280_temperature;BME280_humidity;BME280_pressure;Samples;Min_cycle;Max_cycle;Signal;HPM_P1;HPM_P2
2022/09/15 00:01:48;;;;;;;;;0.33;0.33;;;;;;;;5061231;28;45275;-70
2022/09/15 00:04:13;;;;;;;;;0.00;0.00;;;;;;;;5050152;28;45267;-71
2022/09/15 00:06:38;;;;;;;;;1.67;1.67;;;;;;;;5065789;27;46644;-70
2022/09/15 00:09:04;;;;;;;;;1.00;1.00;;;;;;;;5054368;28;46923;-70
2022/09/15 00:11:31;;;;;;;;;1.00;1.00;;;;;;;;5088214;27;46196;-70
2022/09/15 00:13:57;;;;;;;;;0.67;0.67;;;;;;;;5052891;28;45678;-70
2022/09/15 00:16:24;;;;;;;;;1.67;1.67;;;;;;;;5047774;28;45312;-70
2022/09/15 00:18:49;;;;;;;;;1.33;1.00;;;;;;;;5056967;28;45433;-70
2022/09/15 00:21:22;;;;;;;;;2.67;1.33;;;;;;;;5054626;28;45278;-70
2022/09/15 00:23:48;;;;;;;;;1.00;1.00;;;;;;;;5059129;28;45348;-70
2022/09/15 00:26:15;;;;;;;;;3.00;3.00;;;;;;;;5053430;28;45430;-70
2022/09/15 00:28:40;;;;;;;;;0.33;0.33;;;;;;;;5056468;28;45267;-71
2022/09/15 00:31:07;;;;;;;;;2.00;2.00;;;;;;;;5057564;28;45170;-70
2022/09/15 00:33:32;;;;;;;;;1.67;1.67;;;;;;;;5058096;28;45349;-71
2022/09/15 00:36:00;;;;;;;;;1.67;1.67;;;;;;;;5047542;28;45190;-72
2022/09/15 00:38:25;;;;;;;;;1.00;1.00;;;;;;;;5049525;28;45411;-73
2022/09/15 00:40:53;;;;;;;;;2.00;2.00;;;;;;;;5060167;28;45298;-72
2022/09/15 00:43:20;;;;;;;;;3.00;3.00;;;;;;;;5056215;28;45392;-73
2022/09/15 00:45:45;;;;;;;;;1.00;1.00;;;;;;;;5054194;28;45467;-71
2022/09/15 00:48:16;;;;;;;;;1.00;1.00;;;;;;;;5052749;28;45387;-70
2022/09/15 00:50:43;;;;;;;;;3.67;1.67;;;;;;;;5057042;28;45396;-71
2022/09/15 00:53:10;;;;;;;;;1.67;1.67;;;;;;;;5046681;28;45915;-70
2022/09/15 00:55:38;;;;;;;;;1.67;1.67;;;;;;;;5048325;28;45362;-70
2022/09/15 00:58:09;;;;;;;;;2.67;2.67;;;;;;;;5054007;28;46321;-70
2022/09/15 01:00:35;;;;;;;;;2.33;2.33;;;;;;;;5053839;28;45283;-70
2022/09/15 01:03:02;;;;;;;;;3.00;3.00;;;;;;;;5048103;28;45313;-71
2022/09/15 01:05:29;;;;;;;;;2.00;2.00;;;;;;;;5055627;28;45441;-71
2022/09/15 01:07:57;;;;;;;;;0.67;0.67;;;;;;;;5066868;28;48246;-71
2022/09/15 01:10:22;;;;;;;;;0.67;0.67;;;;;;;;5057746;28;45334;-71
2022/09/15 01:12:47;;;;;;;;;0.67;0.67;;;;;;;;5052756;28;45300;-70
2022/09/15 01:15:13;;;;;;;;;1.00;1.00;;;;;;;;5059906;28;45319;-70
2022/09/15 01:17:57;;;;;;;;;0.67;0.67;;;;;;;;5051264;28;45319;-70
2022/09/15 01:20:39;;;;;;;;;0.33;0.33;;;;;;;;5042492;28;45323;-71
2022/09/15 01:23:25;;;;;;;;;0.67;0.67;;;;;;;;5067964;28;45466;-70
2022/09/15 01:25:56;;;;;;;;;1.67;1.67;;;;;;;;5078848;27;46078;-70
2022/09/15 01:28:40;;;;;;;;;1.67;1.67;;;;;;;;5050420;28;45420;-70
2022/09/15 01:31:11;;;;;;;;;0.00;0.00;;;;;;;;5073578;28;45393;-70
2022/09/15 01:33:47;;;;;;;;;1.00;1.00;;;;;;;;5066423;28;45471;-70
2022/09/15 01:36:26;;;;;;;;;1.33;1.33;;;;;;;;5057040;28;45383;-70
2022/09/15 01:38:51;;;;;;;;;8.67;6.67;;;;;;;;5070382;28;47408;-70
2022/09/15 01:41:20;;;;;;;;;7.67;6.67;;;;;;;;5058009;28;45445;-71
2022/09/15 01:43:59;;;;;;;;;10.67;8.33;;;;;;;;5053598;28;45427;-70
2022/09/15 01:46:26;;;;;;;;;9.67;8.67;;;;;;;;5047451;28;45296;-70
2022/09/15 01:48:53;;;;;;;;;11.33;8.00;;;;;;;;5050083;28;45414;-70
2022/09/15 01:51:20;;;;;;;;;9.00;9.00;;;;;;;;5085453;27;45255;-71
2022/09/15 01:53:45;;;;;;;;;12.00;9.00;;;;;;;;5070268;28;45343;-70
2022/09/15 01:56:11;;;;;;;;;11.33;9.67;;;;;;;;5054842;28;45549;-71
2022/09/15 01:58:38;;;;;;;;;12.67;10.00;;;;;;;;5045334;28;46057;-70
2022/09/15 02:01:12;;;;;;;;;14.00;10.67;;;;;;;;5063821;28;45308;-70
2022/09/15 02:03:38;;;;;;;;;13.00;10.00;;;;;;;;5049515;28;45681;-70
2022/09/15 02:06:08;;;;;;;;;13.67;13.33;;;;;;;;5052513;28;45505;-72
2022/09/15 02:08:37;;;;;;;;;11.67;11.67;;;;;;;;5056214;28;45399;-72
2022/09/15 02:11:10;;;;;;;;;8.67;8.67;;;;;;;;5059527;28;45454;-72
2022/09/15 02:13:54;;;;;;;;;12.33;12.33;;;;;;;;5069151;28;45532;-73
2022/09/15 02:16:20;;;;;;;;;14.33;13.00;;;;;;;;5057138;28;45314;-72
2022/09/15 02:18:51;;;;;;;;;13.67;13.67;;;;;;;;5056871;28;45529;-73
2022/09/15 02:21:28;;;;;;;;;14.67;13.67;;;;;;;;5057746;28;45580;-72
2022/09/15 02:23:56;;;;;;;;;11.33;11.33;;;;;;;;5053586;27;45333;-71
2022/09/15 02:26:24;;;;;;;;;11.67;11.67;;;;;;;;5053766;28;45720;-70
2022/09/15 02:28:51;;;;;;;;;7.67;7.67;;;;;;;;5053370;28;47043;-70
2022/09/15 02:31:17;;;;;;;;;9.67;9.67;;;;;;;;5057900;28;45418;-72
2022/09/15 02:33:46;;;;;;;;;10.33;10.33;;;;;;;;5056162;28;45406;-72
2022/09/15 02:36:13;;;;;;;;;9.00;9.00;;;;;;;;5057798;28;45540;-70
2022/09/15 02:38:42;;;;;;;;;10.00;10.00;;;;;;;;5056529;28;45499;-70
2022/09/15 02:41:08;;;;;;;;;8.00;8.00;;;;;;;;5042984;28;45382;-72
2022/09/15 02:43:33;;;;;;;;;8.67;8.33;;;;;;;;5047382;28;45402;-72
2022/09/15 02:45:59;;;;;;;;;10.33;9.33;;;;;;;;5046420;28;45286;-70
2022/09/15 02:48:25;;;;;;;;;9.33;9.00;;;;;;;;5049616;28;45446;-71
2022/09/15 02:50:50;;;;;;;;;7.00;7.00;;;;;;;;5049889;28;45428;-70
2022/09/15 02:53:15;;;;;;;;;10.00;10.00;;;;;;;;5045884;28;45532;-70
2022/09/15 02:55:41;;;;;;;;;12.33;9.67;;;;;;;;5051843;28;45605;-70
2022/09/15 02:58:06;;;;;;;;;10.67;9.67;;;;;;;;5046316;28;45284;-71
2022/09/15 03:00:31;;;;;;;;;9.00;9.00;;;;;;;;5053709;28;45455;-70
2022/09/15 03:02:57;;;;;;;;;8.33;8.33;;;;;;;;5056999;28;45485;-70
2022/09/15 03:05:23;;;;;;;;;8.33;8.33;;;;;;;;5053728;28;45321;-73
2022/09/15 03:07:49;;;;;;;;;13.00;10.00;;;;;;;;5063169;27;46762;-72
2022/09/15 03:10:15;;;;;;;;;10.00;7.67;;;;;;;;5057849;28;45374;-70
2022/09/15 03:12:42;;;;;;;;;9.00;9.00;;;;;;;;5045006;28;45336;-72
2022/09/15 03:15:08;;;;;;;;;9.67;9.67;;;;;;;;5054097;28;45572;-72
2022/09/15 03:17:37;;;;;;;;;10.00;8.67;;;;;;;;5060629;28;45555;-72
2022/09/15 03:20:04;;;;;;;;;8.00;8.00;;;;;;;;5054411;28;45439;-72
2022/09/15 03:22:29;;;;;;;;;9.67;9.00;;;;;;;;5048295;28;45642;-72
2022/09/15 03:24:54;;;;;;;;;10.33;10.33;;;;;;;;5057569;28;45376;-72
2022/09/15 03:27:19;;;;;;;;;11.00;10.00;;;;;;;;5051934;28;45470;-72
2022/09/15 03:29:45;;;;;;;;;9.00;7.67;;;;;;;;5057925;28;45460;-72
2022/09/15 03:32:10;;;;;;;;;9.00;7.33;;;;;;;;5053643;28;45387;-69
2022/09/15 03:34:35;;;;;;;;;8.00;7.00;;;;;;;;5057687;28;45414;-72
2022/09/15 03:37:00;;;;;;;;;8.67;8.67;;;;;;;;5049250;28;45516;-72
2022/09/15 03:39:25;;;;;;;;;7.33;7.33;;;;;;;;5052146;28;45322;-72
2022/09/15 03:41:51;;;;;;;;;11.33;9.67;;;;;;;;5041528;28;45508;-72
2022/09/15 03:44:16;;;;;;;;;11.67;10.00;;;;;;;;5053398;28;45410;-72
2022/09/15 03:46:41;;;;;;;;;13.33;12.00;;;;;;;;5043317;28;46037;-72
2022/09/15 03:49:07;;;;;;;;;13.67;12.00;;;;;;;;5050407;28;45362;-72
2022/09/15 03:51:32;;;;;;;;;13.00;12.00;;;;;;;;5047395;28;45281;-72
2022/09/15 03:53:57;;;;;;;;;14.33;13.33;;;;;;;;5050296;28;45521;-72
2022/09/15 03:56:22;;;;;;;;;19.67;15.00;;;;;;;;5058321;28;45482;-72
2022/09/15 03:58:48;;;;;;;;;12.33;11.67;;;;;;;;5050437;28;45382;-72
2022/09/15 04:01:13;;;;;;;;;15.00;13.67;;;;;;;;5050641;28;45233;-72
2022/09/15 04:03:38;;;;;;;;;16.67;15.00;;;;;;;;5048030;28;46813;-73
2022/09/15 04:06:04;;;;;;;;;13.67;12.33;;;;;;;;5056291;28;45389;-72
2022/09/15 04:08:29;;;;;;;;;14.33;14.00;;;;;;;;5049716;28;45429;-72
2022/09/15 04:10:54;;;;;;;;;13.00;13.00;;;;;;;;5073510;28;45567;-72
2022/09/15 04:13:20;;;;;;;;;16.33;13.67;;;;;;;;5048393;28;45262;-72
2022/09/15 04:15:45;;;;;;;;;13.67;13.67;;;;;;;;5046161;28;45304;-72
2022/09/15 04:18:10;;;;;;;;;19.33;19.00;;;;;;;;5063411;28;45291;-72
2022/09/15 04:20:37;;;;;;;;;20.67;16.00;;;;;;;;5053330;27;45291;-72
2022/09/15 04:23:02;;;;;;;;;16.00;14.00;;;;;;;;5051035;28;45368;-72
2022/09/15 04:25:28;;;;;;;;;16.67;16.67;;;;;;;;5054436;28;45236;-71
2022/09/15 04:27:54;;;;;;;;;16.33;13.67;;;;;;;;5068532;28;45599;-73
2022/09/15 04:30:20;;;;;;;;;15.00;15.00;;;;;;;;5061721;28;45285;-72
2022/09/15 04:32:45;;;;;;;;;18.00;16.00;;;;;;;;5053800;28;45301;-72
2022/09/15 04:35:11;;;;;;;;;15.33;15.00;;;;;;;;5059092;28;45511;-72
2022/09/15 04:37:36;;;;;;;;;18.33;17.00;;;;;;;;5056434;28;45320;-72
2022/09/15 04:40:01;;;;;;;;;21.00;19.00;;;;;;;;5052796;28;45200;-72
2022/09/15 04:42:26;;;;;;;;;17.00;17.00;;;;;;;;5073299;28;45983;-72
2022/09/15 04:44:52;;;;;;;;;19.67;16.67;;;;;;;;5061322;28;45221;-71
2022/09/15 04:47:17;;;;;;;;;17.67;15.00;;;;;;;;5055949;28;45331;-70
2022/09/15 04:49:42;;;;;;;;;18.67;15.67;;;;;;;;5052075;28;45536;-71
2022/09/15 04:52:08;;;;;;;;;17.67;16.67;;;;;;;;5055062;28;44856;-71
2022/09/15 04:54:33;;;;;;;;;17.00;16.67;;;;;;;;5051122;28;45209;-71
2022/09/15 04:56:58;;;;;;;;;20.00;16.00;;;;;;;;5059092;28;45300;-71
2022/09/15 04:59:23;;;;;;;;;17.00;16.33;;;;;;;;5055135;28;45384;-71
2022/09/15 05:01:52;;;;;;;;;16.00;14.33;;;;;;;;5060080;28;45520;-71
2022/09/15 05:04:17;;;;;;;;;16.67;16.33;;;;;;;;5054568;28;46278;-70
2022/09/15 05:06:42;;;;;;;;;16.67;14.33;;;;;;;;5054152;28;45319;-71
2022/09/15 05:09:11;;;;;;;;;19.33;17.00;;;;;;;;5054342;28;45441;-72
2022/09/15 05:11:36;;;;;;;;;20.33;17.00;;;;;;;;5059727;28;45295;-72
2022/09/15 05:14:02;;;;;;;;;16.00;15.00;;;;;;;;5048547;28;45193;-71
2022/09/15 05:16:28;;;;;;;;;18.33;17.00;;;;;;;;5088522;27;45415;-71
2022/09/15 05:18:54;;;;;;;;;19.33;16.67;;;;;;;;5055400;28;45540;-71
2022/09/15 05:21:20;;;;;;;;;13.67;12.00;;;;;;;;5055232;28;45288;-71
2022/09/15 05:23:46;;;;;;;;;22.00;19.00;;;;;;;;5050891;28;45294;-71
2022/09/15 05:26:12;;;;;;;;;18.67;17.00;;;;;;;;5046031;28;45350;-71
2022/09/15 05:28:38;;;;;;;;;21.67;20.00;;;;;;;;5045941;28;45445;-72
2022/09/15 05:31:10;;;;;;;;;20.33;19.00;;;;;;;;5059165;28;45389;-72
2022/09/15 05:33:36;;;;;;;;;22.67;19.33;;;;;;;;5063125;28;47720;-72
2022/09/15 05:36:01;;;;;;;;;26.00;21.33;;;;;;;;5052382;28;45449;-71
2022/09/15 05:38:28;;;;;;;;;24.00;21.00;;;;;;;;5054370;28;45862;-70
2022/09/15 05:40:53;;;;;;;;;22.00;21.67;;;;;;;;5058917;28;46514;-72
2022/09/15 05:43:18;;;;;;;;;27.00;21.33;;;;;;;;5053295;28;45379;-73
2022/09/15 05:45:43;;;;;;;;;22.00;20.67;;;;;;;;5083592;27;45528;-71
2022/09/15 05:48:09;;;;;;;;;23.00;22.50;;;;;;;;5053664;28;45423;-71
2022/09/15 05:50:35;;;;;;;;;23.67;22.00;;;;;;;;5059632;28;45444;-72
2022/09/15 05:53:00;;;;;;;;;28.00;23.00;;;;;;;;5055829;28;46080;-72
2022/09/15 05:55:26;;;;;;;;;25.00;22.00;;;;;;;;5059652;28;45429;-73
2022/09/15 05:57:51;;;;;;;;;23.33;19.33;;;;;;;;5058485;28;45321;-71
2022/09/15 06:00:17;;;;;;;;;21.33;19.00;;;;;;;;5059649;28;45267;-71
2022/09/15 06:02:43;;;;;;;;;24.67;23.33;;;;;;;;5058111;28;45221;-71
2022/09/15 06:05:08;;;;;;;;;26.00;22.67;;;;;;;;5059367;28;45239;-71
2022/09/15 06:07:33;;;;;;;;;25.33;24.00;;;;;;;;5057373;28;45501;-71
2022/09/15 06:09:58;;;;;;;;;29.00;26.00;;;;;;;;5086731;27;46240;-71
2022/09/15 06:12:23;;;;;;;;;29.75;26.75;;;;;;;;5058296;28;46125;-71
2022/09/15 06:14:49;;;;;;;;;34.75;29.50;;;;;;;;5058253;28;45280;-71
2022/09/15 06:17:15;;;;;;;;;25.00;22.33;;;;;;;;5058428;28;45548;-70
2022/09/15 06:19:40;;;;;;;;;33.50;26.50;;;;;;;;5059068;28;45418;-71
2022/09/15 06:22:06;;;;;;;;;19.67;19.67;;;;;;;;5058262;28;46444;-72
2022/09/15 06:24:31;;;;;;;;;29.75;26.25;;;;;;;;5091211;27;45170;-71
2022/09/15 06:26:56;;;;;;;;;28.00;26.33;;;;;;;;5058999;28;45436;-72
2022/09/15 06:29:21;;;;;;;;;24.67;24.67;;;;;;;;5058153;28;45485;-71
2022/09/15 06:31:46;;;;;;;;;28.00;25.00;;;;;;;;5059054;28;46600;-71
2022/09/15 06:34:11;;;;;;;;;29.75;25.50;;;;;;;;5057477;28;45363;-71
2022/09/15 06:36:37;;;;;;;;;28.25;26.75;;;;;;;;5059377;28;45603;-71
2022/09/15 06:39:03;;;;;;;;;27.25;25.50;;;;;;;;5057126;28;45435;-72
2022/09/15 06:41:28;;;;;;;;;29.25;28.00;;;;;;;;5058681;28;46608;-71
2022/09/15 06:43:54;;;;;;;;;31.33;27.00;;;;;;;;5057183;28;45303;-70
2022/09/15 06:46:22;;;;;;;;;28.33;24.33;;;;;;;;5061008;28;45404;-71
2022/09/15 06:48:48;;;;;;;;;30.00;27.00;;;;;;;;5055422;28;45460;-71
2022/09/15 06:51:15;;;;;;;;;29.33;27.00;;;;;;;;5057281;28;46781;-71
2022/09/15 06:53:41;;;;;;;;;26.33;25.33;;;;;;;;5056696;28;45699;-71
2022/09/15 06:56:16;;;;;;;;;33.00;22.67;;;;;;;;5058775;28;45363;-71
2022/09/15 06:58:43;;;;;;;;;28.33;27.33;;;;;;;;5057421;28;45176;-71
2022/09/15 07:01:10;;;;;;;;;28.67;26.67;;;;;;;;5058638;28;46283;-71
2022/09/15 07:03:36;;;;;;;;;27.67;25.00;;;;;;;;5055782;28;45607;-72
2022/09/15 07:06:02;;;;;;;;;27.67;26.00;;;;;;;;5058756;28;45613;-71
2022/09/15 07:08:28;;;;;;;;;27.33;25.00;;;;;;;;5054572;28;45517;-71
2022/09/15 07:10:54;;;;;;;;;31.33;26.00;;;;;;;;5058253;28;46289;-72
2022/09/15 07:13:19;;;;;;;;;30.00;24.00;;;;;;;;5056672;28;45406;-72
2022/09/15 07:15:48;;;;;;;;;33.33;30.00;;;;;;;;5049268;28;44924;-71
2022/09/15 07:18:13;;;;;;;;;30.00;26.00;;;;;;;;5052045;28;45469;-73
2022/09/15 07:20:39;;;;;;;;;29.33;25.33;;;;;;;;5058343;28;45930;-73
2022/09/15 07:23:04;;;;;;;;;29.00;24.67;;;;;;;;5057119;27;45335;-71
2022/09/15 07:25:30;;;;;;;;;30.33;25.33;;;;;;;;5058519;28;45426;-71
2022/09/15 07:27:55;;;;;;;;;30.00;24.67;;;;;;;;5056793;28;45269;-71
2022/09/15 07:30:20;;;;;;;;;23.00;23.00;;;;;;;;5058119;28;45412;-72
2022/09/15 07:32:45;;;;;;;;;29.67;25.67;;;;;;;;5056760;28;45488;-71
2022/09/15 07:35:11;;;;;;;;;23.67;23.67;;;;;;;;5058413;28;45307;-72
2022/09/15 07:37:36;;;;;;;;;26.00;23.00;;;;;;;;5056362;28;45602;-72
2022/09/15 07:40:02;;;;;;;;;33.33;28.67;;;;;;;;5058113;28;45311;-72
2022/09/15 07:42:27;;;;;;;;;23.67;21.00;;;;;;;;5051538;28;45649;-71
2022/09/15 07:44:52;;;;;;;;;30.00;23.00;;;;;;;;5051777;28;45266;-72
2022/09/15 07:47:17;;;;;;;;;25.00;22.00;;;;;;;;5056595;28;46996;-72
2022/09/15 07:49:43;;;;;;;;;27.00;23.33;;;;;;;;5079525;27;47308;-72
2022/09/15 07:52:08;;;;;;;;;25.33;24.00;;;;;;;;5056940;28;45497;-72
2022/09/15 07:54:34;;;;;;;;;27.00;26.00;;;;;;;;5086080;27;45356;-72
2022/09/15 07:56:59;;;;;;;;;28.00;24.33;;;;;;;;5051469;28;45290;-72
2022/09/15 07:59:24;;;;;;;;;26.00;25.00;;;;;;;;5055470;28;45415;-72
2022/09/15 08:01:50;;;;;;;;;24.33;23.67;;;;;;;;5053357;28;45607;-72
2022/09/15 08:04:15;;;;;;;;;25.00;22.00;;;;;;;;5055941;28;45219;-72
2022/09/15 08:06:40;;;;;;;;;22.33;20.33;;;;;;;;5061652;28;45513;-72
2022/09/15 08:09:05;;;;;;;;;23.00;23.00;;;;;;;;5058473;28;45448;-72
2022/09/15 08:11:30;;;;;;;;;20.00;19.67;;;;;;;;5059626;28;44845;-73
2022/09/15 08:13:58;;;;;;;;;21.00;20.00;;;;;;;;5073792;28;45251;-72
2022/09/15 08:16:24;;;;;;;;;25.33;21.67;;;;;;;;5061806;28;45342;-73
2022/09/15 08:18:51;;;;;;;;;21.33;18.33;;;;;;;;5049904;28;45889;-73
2022/09/15 08:21:18;;;;;;;;;18.00;16.00;;;;;;;;5059556;28;45707;-72
2022/09/15 08:23:44;;;;;;;;;23.33;18.67;;;;;;;;5055162;28;45951;-72
2022/09/15 08:26:10;;;;;;;;;23.67;21.00;;;;;;;;5059930;28;45435;-73
2022/09/15 08:28:36;;;;;;;;;16.00;14.67;;;;;;;;5057830;28;45544;-72
2022/09/15 08:31:02;;;;;;;;;17.00;16.00;;;;;;;;5055509;27;45462;-72
2022/09/15 08:33:28;;;;;;;;;17.00;14.67;;;;;;;;5058974;28;45347;-71
2022/09/15 08:35:53;;;;;;;;;15.00;14.00;;;;;;;;5057340;28;45438;-71
2022/09/15 08:38:19;;;;;;;;;17.67;14.67;;;;;;;;5053115;28;45480;-71
2022/09/15 08:40:45;;;;;;;;;13.33;13.33;;;;;;;;5055444;28;45334;-72
2022/09/15 08:43:17;;;;;;;;;13.33;13.33;;;;;;;;5045613;28;45411;-71
2022/09/15 08:45:52;;;;;;;;;11.67;11.00;;;;;;;;5050783;28;45359;-71
2022/09/15 08:48:20;;;;;;;;;11.33;8.00;;;;;;;;5049673;28;45397;-71
2022/09/15 08:50:48;;;;;;;;;9.67;8.33;;;;;;;;5053127;28;45257;-71
2022/09/15 08:53:44;;;;;;;;;8.33;8.33;;;;;;;;5046978;28;45560;-71
2022/09/15 08:56:15;;;;;;;;;12.67;9.67;;;;;;;;5043114;28;45970;-72
2022/09/15 08:58:41;;;;;;;;;9.33;9.00;;;;;;;;5049936;28;45426;-72
2022/09/15 09:01:09;;;;;;;;;10.33;9.00;;;;;;;;5057066;28;45320;-71
2022/09/15 09:03:34;;;;;;;;;8.67;7.67;;;;;;;;5050998;28;45604;-71
2022/09/15 09:06:21;;;;;;;;;8.67;8.67;;;;;;;;5059064;28;45299;-71
2022/09/15 09:09:21;;;;;;;;;11.00;9.33;;;;;;;;5054869;28;45435;-71
2022/09/15 09:12:05;;;;;;;;;8.00;7.00;;;;;;;;4998736;28;45358;-71
2022/09/15 09:14:39;;;;;;;;;10.67;7.67;;;;;;;;5050161;28;45538;-71
2022/09/15 09:17:23;;;;;;;;;7.75;6.00;;;;;;;;5060044;28;45391;-71
2022/09/15 09:19:48;;;;;;;;;4.50;4.50;;;;;;;;5052383;28;45499;-72
2022/09/15 09:22:20;;;;;;;;;4.00;4.00;;;;;;;;5049562;28;45324;-71
2022/09/15 09:24:48;;;;;;;;;6.25;6.25;;;;;;;;5055674;28;45412;-71
2022/09/15 09:27:17;;;;;;;;;8.50;6.50;;;;;;;;5086520;27;45823;-71
2022/09/15 09:29:48;;;;;;;;;7.67;6.67;;;;;;;;5052906;28;45186;-71
2022/09/15 09:32:23;;;;;;;;;9.33;7.67;;;;;;;;5050652;28;45568;-72
2022/09/15 09:35:00;;;;;;;;;8.75;8.75;;;;;;;;5053196;28;45392;-71
2022/09/15 09:37:26;;;;;;;;;7.50;7.50;;;;;;;;5067026;28;45592;-71
2022/09/15 09:39:51;;;;;;;;;7.25;6.50;;;;;;;;5071734;28;47053;-71
2022/09/15 09:42:17;;;;;;;;;5.50;5.50;;;;;;;;5045491;28;45453;-71
2022/09/15 09:44:43;;;;;;;;;5.00;4.00;;;;;;;;5055504;28;45198;-72
2022/09/15 09:47:09;;;;;;;;;4.50;4.00;;;;;;;;5047213;28;45249;-72
2022/09/15 09:49:37;;;;;;;;;4.00;4.00;;;;;;;;5067655;28;47244;-71
2022/09/15 09:52:03;;;;;;;;;6.00;5.00;;;;;;;;5084420;27;45323;-72
2022/09/15 09:54:30;;;;;;;;;4.25;4.25;;;;;;;;5055232;28;45474;-72
2022/09/15 09:56:56;;;;;;;;;4.00;3.50;;;;;;;;5056739;28;45423;-71
2022/09/15 09:59:41;;;;;;;;;4.50;4.50;;;;;;;;5052132;28;47289;-71
2022/09/15 10:02:09;;;;;;;;;5.00;3.50;;;;;;;;5055118;28;45324;-72
2022/09/15 10:04:34;;;;;;;;;6.00;3.75;;;;;;;;5054907;28;45390;-71
2022/09/15 10:06:59;;;;;;;;;6.25;3.25;;;;;;;;5055016;28;45277;-70
2022/09/15 10:09:25;;;;;;;;;3.75;3.75;;;;;;;;5069269;28;50851;-71
2022/09/15 10:11:52;;;;;;;;;5.50;4.50;;;;;;;;5057055;28;45255;-71
2022/09/15 10:14:24;;;;;;;;;11.50;9.00;;;;;;;;5045022;28;45508;-71
2022/09/15 10:16:55;;;;;;;;;4.50;3.50;;;;;;;;5046478;28;45461;-71
2022/09/15 10:19:20;;;;;;;;;3.00;3.00;;;;;;;;5046036;28;46442;-71
2022/09/15 10:21:46;;;;;;;;;4.75;4.75;;;;;;;;5049910;28;45342;-72
2022/09/15 10:24:31;;;;;;;;;5.50;5.00;;;;;;;;5052981;28;45428;-72
2022/09/15 10:27:15;;;;;;;;;1.75;1.00;;;;;;;;5057494;28;45376;-72
2022/09/15 10:29:40;;;;;;;;;2.20;2.20;;;;;;;;5053695;28;45335;-71
2022/09/15 10:32:16;;;;;;;;;5.25;4.25;;;;;;;;5056414;28;45303;-72
2022/09/15 10:34:42;;;;;;;;;2.40;2.00;;;;;;;;5057870;28;45422;-72
2022/09/15 10:37:28;;;;;;;;;4.00;2.00;;;;;;;;5050681;28;45470;-72
2022/09/15 10:39:54;;;;;;;;;2.40;2.00;;;;;;;;5045906;28;45241;-72
2022/09/15 10:42:23;;;;;;;;;2.40;2.40;;;;;;;;5051070;28;45476;-71
2022/09/15 10:45:08;;;;;;;;;2.60;2.40;;;;;;;;5052593;28;45308;-71
2022/09/15 10:47:45;;;;;;;;;0.60;0.60;;;;;;;;5051287;28;45456;-71
2022/09/15 10:50:16;;;;;;;;;3.80;3.20;;;;;;;;5058794;28;46225;-71
2022/09/15 10:52:53;;;;;;;;;3.20;3.20;;;;;;;;5051762;28;45170;-71
2022/09/15 10:55:18;;;;;;;;;3.00;3.00;;;;;;;;5052982;28;45797;-71
2022/09/15 10:57:53;;;;;;;;;2.00;2.00;;;;;;;;5055392;28;45292;-71
2022/09/15 11:00:21;;;;;;;;;2.00;2.00;;;;;;;;5055696;28;45380;-71
2022/09/15 11:02:49;;;;;;;;;3.80;1.80;;;;;;;;5045914;28;45241;-72
2022/09/15 11:05:17;;;;;;;;;0.20;0.20;;;;;;;;5065261;28;45229;-71
2022/09/15 11:07:53;;;;;;;;;4.00;2.80;;;;;;;;5048955;28;45372;-71
2022/09/15 11:10:18;;;;;;;;;3.00;2.00;;;;;;;;5051434;28;45441;-72
2022/09/15 11:12:52;;;;;;;;;5.50;2.75;;;;;;;;5050262;28;45852;-71
2022/09/15 11:15:17;;;;;;;;;6.00;2.80;;;;;;;;5053585;28;45339;-72
2022/09/15 11:18:03;;;;;;;;;1.00;1.00;;;;;;;;5052392;28;45428;-72
2022/09/15 11:20:47;;;;;;;;;2.60;1.00;;;;;;;;5054633;28;45484;-72
2022/09/15 11:23:19;;;;;;;;;4.20;3.00;;;;;;;;5055005;28;45393;-71
2022/09/15 11:25:48;;;;;;;;;3.60;3.60;;;;;;;;5058985;28;45397;-72
2022/09/15 11:28:29;;;;;;;;;3.60;2.60;;;;;;;;5051826;28;45364;-71
2022/09/15 11:31:00;;;;;;;;;5.20;4.20;;;;;;;;5060836;28;47091;-71
2022/09/15 11:33:33;;;;;;;;;3.40;3.20;;;;;;;;5044447;28;45477;-71
2022/09/15 11:36:05;;;;;;;;;3.60;2.60;;;;;;;;5046590;28;45369;-73
2022/09/15 11:38:50;;;;;;;;;3.80;2.40;;;;;;;;5045902;28;45435;-73
2022/09/15 11:41:18;;;;;;;;;4.00;4.00;;;;;;;;5057333;28;45260;-72
2022/09/15 11:43:50;;;;;;;;;5.40;4.60;;;;;;;;5046441;28;45284;-71
2022/09/15 11:46:20;;;;;;;;;2.40;2.40;;;;;;;;5058142;28;45355;-71
2022/09/15 11:48:56;;;;;;;;;5.50;2.50;;;;;;;;5056656;28;45407;-72
2022/09/15 11:51:24;;;;;;;;;5.00;4.00;;;;;;;;5051107;28;47121;-72
2022/09/15 11:53:54;;;;;;;;;5.00;3.40;;;;;;;;5046990;28;45375;-72
2022/09/15 11:56:20;;;;;;;;;4.00;3.00;;;;;;;;5048988;28;45468;-72
2022/09/15 11:59:04;;;;;;;;;1.80;1.80;;;;;;;;5049408;28;45472;-71
2022/09/15 12:01:44;;;;;;;;;3.40;3.40;;;;;;;;5072803;28;46159;-70
2022/09/15 12:04:16;;;;;;;;;2.00;2.00;;;;;;;;5043145;28;45332;-69
2022/09/15 12:06:53;;;;;;;;;1.80;1.80;;;;;;;;5046121;28;45261;-69
2022/09/15 12:09:19;;;;;;;;;3.40;2.40;;;;;;;;5044936;28;45249;-70
2022/09/15 12:11:46;;;;;;;;;2.50;2.50;;;;;;;;5057346;28;45214;-70
2022/09/15 12:14:14;;;;;;;;;4.00;3.20;;;;;;;;5047624;28;45438;-71
2022/09/15 12:16:39;;;;;;;;;2.40;2.40;;;;;;;;5051020;28;45496;-71
2022/09/15 12:19:13;;;;;;;;;3.00;3.00;;;;;;;;5054488;28;45428;-71
2022/09/15 12:21:45;;;;;;;;;3.20;3.20;;;;;;;;5040351;28;46372;-70
2022/09/15 12:24:21;;;;;;;;;2.60;2.20;;;;;;;;5049837;28;45382;-70
2022/09/15 12:26:47;;;;;;;;;2.20;2.20;;;;;;;;5056619;28;45904;-70
2022/09/15 12:29:24;;;;;;;;;3.25;3.25;;;;;;;;5049650;28;45320;-69
2022/09/15 12:32:09;;;;;;;;;3.80;3.80;;;;;;;;5054223;28;45425;-70
2022/09/15 12:34:37;;;;;;;;;2.80;2.80;;;;;;;;5054980;28;45274;-70
2022/09/15 12:37:06;;;;;;;;;5.00;3.00;;;;;;;;5044429;28;45348;-69
2022/09/15 12:39:44;;;;;;;;;2.80;2.80;;;;;;;;5048142;28;45418;-70
2022/09/15 12:42:23;;;;;;;;;3.60;3.60;;;;;;;;5052967;28;45561;-70
2022/09/15 12:44:55;;;;;;;;;3.20;2.40;;;;;;;;5053091;28;45394;-71
2022/09/15 12:47:34;;;;;;;;;3.60;3.60;;;;;;;;5052379;28;45336;-69
2022/09/15 12:50:23;;;;;;;;;4.40;4.40;;;;;;;;5053250;28;45232;-70
2022/09/15 12:52:53;;;;;;;;;6.00;3.60;;;;;;;;5047424;28;45568;-69
2022/09/15 12:55:27;;;;;;;;;5.40;3.80;;;;;;;;5073034;27;45815;-70
2022/09/15 12:58:00;;;;;;;;;5.60;4.60;;;;;;;;5063139;28;45419;-70
2022/09/15 13:00:26;;;;;;;;;5.20;5.20;;;;;;;;5055059;28;45377;-70
2022/09/15 13:02:52;;;;;;;;;3.60;3.40;;;;;;;;5049004;28;45485;-71
2022/09/15 13:05:52;;;;;;;;;3.50;3.50;;;;;;;;5055650;28;45465;-70
2022/09/15 13:08:23;;;;;;;;;4.60;4.00;;;;;;;;4991578;28;45460;-70
2022/09/15 13:10:59;;;;;;;;;4.00;3.20;;;;;;;;5049291;28;45390;-70
2022/09/15 13:13:28;;;;;;;;;5.60;5.20;;;;;;;;5050420;28;45344;-70
2022/09/15 13:15:54;;;;;;;;;4.00;3.60;;;;;;;;5047761;28;45501;-70
2022/09/15 13:18:20;;;;;;;;;4.00;4.00;;;;;;;;5050422;28;45418;-69
2022/09/15 13:20:49;;;;;;;;;4.40;3.60;;;;;;;;5049909;28;45349;-70
2022/09/15 13:23:15;;;;;;;;;7.20;5.00;;;;;;;;5050644;28;45503;-71
2022/09/15 13:25:42;;;;;;;;;5.25;5.25;;;;;;;;5060207;28;45347;-70
2022/09/15 13:28:10;;;;;;;;;5.20;4.20;;;;;;;;5052526;28;45453;-69
2022/09/15 13:30:54;;;;;;;;;6.60;6.40;;;;;;;;5055673;28;45693;-69
2022/09/15 13:33:44;;;;;;;;;5.60;5.60;;;;;;;;5056724;28;45382;-69
2022/09/15 13:36:28;;;;;;;;;6.00;5.80;;;;;;;;5047473;28;45237;-69
2022/09/15 13:39:08;;;;;;;;;7.60;5.80;;;;;;;;5046748;28;45888;-69
2022/09/15 13:41:50;;;;;;;;;7.20;7.20;;;;;;;;5058646;28;45626;-70
2022/09/15 13:44:25;;;;;;;;;7.80;7.80;;;;;;;;5056067;28;45359;-69
2022/09/15 13:46:50;;;;;;;;;11.00;10.40;;;;;;;;5055895;28;45587;-70
2022/09/15 13:49:26;;;;;;;;;8.00;8.00;;;;;;;;5053784;28;45413;-69
2022/09/15 13:51:58;;;;;;;;;7.25;7.25;;;;;;;;5051541;28;46088;-70
2022/09/15 13:54:24;;;;;;;;;7.00;7.00;;;;;;;;5051754;28;46180;-70
2022/09/15 13:56:52;;;;;;;;;8.25;7.25;;;;;;;;5059807;28;45465;-71
2022/09/15 13:59:20;;;;;;;;;8.20;8.20;;;;;;;;5052181;28;45449;-69
2022/09/15 14:01:46;;;;;;;;;8.75;8.75;;;;;;;;5059122;28;45358;-70
2022/09/15 14:04:13;;;;;;;;;12.00;10.00;;;;;;;;5072662;28;47105;-71
2022/09/15 14:06:46;;;;;;;;;8.00;8.00;;;;;;;;5053479;28;45272;-70
2022/09/15 14:09:11;;;;;;;;;8.80;7.40;;;;;;;;5053298;28;45417;-70
2022/09/15 14:11:37;;;;;;;;;11.25;8.25;;;;;;;;5054271;28;45615;-71
2022/09/15 14:14:05;;;;;;;;;12.00;10.25;;;;;;;;5052444;28;45454;-70
2022/09/15 14:16:35;;;;;;;;;13.60;11.40;;;;;;;;5057444;28;45545;-70
2022/09/15 14:19:02;;;;;;;;;11.20;9.20;;;;;;;;5050251;28;45678;-71
2022/09/15 14:21:29;;;;;;;;;10.00;8.50;;;;;;;;5056022;28;47030;-71
2022/09/15 14:24:01;;;;;;;;;10.50;10.25;;;;;;;;5042410;28;46457;-70
2022/09/15 14:26:28;;;;;;;;;10.80;10.20;;;;;;;;5046425;28;45451;-70
2022/09/15 14:28:53;;;;;;;;;11.00;9.00;;;;;;;;5046737;28;45386;-71
2022/09/15 14:31:27;;;;;;;;;12.50;10.50;;;;;;;;5056666;28;45589;-71
2022/09/15 14:33:52;;;;;;;;;11.25;8.75;;;;;;;;5050480;28;45474;-70
2022/09/15 14:36:23;;;;;;;;;8.50;8.50;;;;;;;;5054464;28;45336;-70
2022/09/15 14:39:07;;;;;;;;;10.00;7.50;;;;;;;;5049466;28;45541;-71
2022/09/15 14:41:33;;;;;;;;;11.25;10.00;;;;;;;;5057096;28;45831;-71